sensor_id;sensor_type;location;lat;lon;timestamp;P1;durP1;ratioP1;P2;durP2;ratioP2
11763;SDS011;5939;56.522;14.950;2022-07-05T00:01:50;1.40;;;1.27;;
11763;SDS011;5939;56.522;14.950;2022-07-05T00:04:16;1.30;;;1.07;;
11763;SDS011;5939;56.522;14.950;2022-07-05T00:06:42;1.77;;;1.20;;
11763;SDS011;5939;56.522;14.950;2022-07-05T00:09:26;2.23;;;1.17;;
11763;SDS011;5939;56.522;14.950;2022-07-05T00:11:52;1.53;;;0.90;;
11763;SDS011;5939;56.522;14.950;2022-07-05T00:14:18;1.90;;;1.10;;
11763;SDS011;5939;56.522;14.950;2022-07-05T00:16:44;1.07;;;0.97;;
11763;SDS011;5939;56.522;14.950;2022-07-05T00:19:09;1.00;;;1.00;;
11763;SDS011;5939;56.522;14.950;2022-07-05T00:21:36;1.73;;;1.20;;
11763;SDS011;5939;56.522;14.950;2022-07-05T00:24:01;2.93;;;1.20;;
11763;SDS011;5939;56.522;14.950;2022-07-05T00:26:27;1.33;;;1.00;;
11763;SDS011;5939;56.522;14.950;2022-07-05T00:28:53;1.20;;;1.10;;
11763;SDS011;5939;56.522;14.950;2022-07-05T00:31:19;1.07;;;0.93;;
11763;SDS011;5939;56.522;14.950;2022-07-05T00:33:44;2.07;;;1.30;;
11763;SDS011;5939;56.522;14.950;2022-07-05T00:36:10;1.27;;;1.17;;
11763;SDS011;5939;56.522;14.950;2022-07-05T00:38:36;1.47;;;1.30;;
11763;SDS011;5939;56.522;14.950;2022-07-05T00:41:01;1.10;;;1.00;;
11763;SDS011;5939;56.522;14.950;2022-07-05T00:43:27;1.80;;;1.30;;
11763;SDS011;5939;56.522;14.950;2022-07-05T00:45:53;1.20;;;1.10;;
11763;SDS011;5939;56.522;14.950;2022-07-05T00:48:19;3.23;;;1.40;;
11763;SDS011;5939;56.522;14.950;2022-07-05T00:50:44;1.70;;;1.20;;
11763;SDS011;5939;56.522;14.950;2022-07-05T00:53:10;2.13;;;1.33;;
11763;SDS011;5939;56.522;14.950;2022-07-05T00:55:36;1.33;;;1.00;;
11763;SDS011;5939;56.522;14.950;2022-07-05T00:58:02;2.47;;;1.40;;
11763;SDS011;5939;56.522;14.950;2022-07-05T01:00:28;1.93;;;1.10;;
11763;SDS011;5939;56.522;14.950;2022-07-05T01:02:54;2.03;;;1.20;;
11763;SDS011;5939;56.522;14.950;2022-07-05T01:05:19;2.10;;;1.00;;
11763;SDS011;5939;56.522;14.950;2022-07-05T01:07:47;2.10;;;1.20;;
11763;SDS011;5939;56.522;14.950;2022-07-05T01:10:13;2.70;;;1.23;;
11763;SDS011;5939;56.522;14.950;2022-07-05T01:12:42;1.90;;;1.30;;
11763;SDS011;5939;56.522;14.950;2022-07-05T01:15:08;2.27;;;1.50;;
11763;SDS011;5939;56.522;14.950;2022-07-05T01:17:34;3.27;;;1.37;;
11763;SDS011;5939;56.522;14.950;2022-07-05T01:20:02;1.27;;;1.17;;
11763;SDS011;5939;56.522;14.950;2022-07-05T01:25:33;2.53;;;1.40;;
11763;SDS011;5939;56.522;14.950;2022-07-05T01:28:00;1.93;;;1.30;;
11763;SDS011;5939;56.522;14.950;2022-07-05T01:30:27;1.77;;;1.17;;
11763;SDS011;5939;56.522;14.950;2022-07-05T01:32:53;1.33;;;1.20;;
11763;SDS011;5939;56.522;14.950;2022-07-05T01:35:19;1.77;;;1.20;;
11763;SDS011;5939;56.522;14.950;2022-07-05T01:37:49;1.27;;;1.17;;
11763;SDS011;5939;56.522;14.950;2022-07-05T01:40:17;1.40;;;1.17;;
11763;SDS011;5939;56.522;14.950;2022-07-05T01:42:43;1.47;;;1.30;;
11763;SDS011;5939;56.522;14.950;2022-07-05T01:45:10;2.23;;;1.10;;
11763;SDS011;5939;56.522;14.950;2022-07-05T01:47:36;1.57;;;1.20;;
11763;SDS011;5939;56.522;14.950;2022-07-05T01:50:06;1.97;;;1.20;;
11763;SDS011;5939;56.522;14.950;2022-07-05T01:52:34;2.17;;;1.13;;
11763;SDS011;5939;56.522;14.950;2022-07-05T01:55:04;1.33;;;1.20;;
11763;SDS011;5939;56.522;14.950;2022-07-05T01:57:31;2.17;;;1.10;;
11763;SDS011;5939;56.522;14.950;2022-07-05T01:59:56;1.90;;;1.43;;
11763;SDS011;5939;56.522;14.950;2022-07-05T02:02:22;2.20;;;1.20;;
11763;SDS011;5939;56.522;14.950;2022-07-05T02:04:48;1.93;;;1.27;;
11763;SDS011;5939;56.522;14.950;2022-07-05T02:07:13;2.30;;;1.27;;
11763;SDS011;5939;56.522;14.950;2022-07-05T02:09:39;1.50;;;1.40;;
11763;SDS011;5939;56.522;14.950;2022-07-05T02:12:05;2.07;;;1.30;;
11763;SDS011;5939;56.522;14.950;2022-07-05T02:14:31;2.47;;;1.40;;
11763;SDS011;5939;56.522;14.950;2022-07-05T02:16:57;2.10;;;1.37;;
11763;SDS011;5939;56.522;14.950;2022-07-05T02:19:23;2.57;;;1.30;;
11763;SDS011;5939;56.522;14.950;2022-07-05T02:21:49;1.80;;;1.50;;
11763;SDS011;5939;56.522;14.950;2022-07-05T02:24:15;2.43;;;1.30;;
11763;SDS011;5939;56.522;14.950;2022-07-05T02:26:41;1.77;;;1.40;;
11763;SDS011;5939;56.522;14.950;2022-07-05T02:29:06;2.63;;;1.20;;
11763;SDS011;5939;56.522;14.950;2022-07-05T02:31:32;1.67;;;1.50;;
11763;SDS011;5939;56.522;14.950;2022-07-05T02:33:58;2.27;;;1.60;;
11763;SDS011;5939;56.522;14.950;2022-07-05T02:36:24;2.80;;;1.40;;
11763;SDS011;5939;56.522;14.950;2022-07-05T02:38:50;2.27;;;1.33;;
11763;SDS011;5939;56.522;14.950;2022-07-05T02:41:16;1.30;;;1.20;;
11763;SDS011;5939;56.522;14.950;2022-07-05T02:43:41;2.20;;;1.30;;
11763;SDS011;5939;56.522;14.950;2022-07-05T02:46:07;2.23;;;1.33;;
11763;SDS011;5939;56.522;14.950;2022-07-05T02:48:34;3.07;;;1.30;;
11763;SDS011;5939;56.522;14.950;2022-07-05T02:51:00;1.50;;;1.23;;
11763;SDS011;5939;56.522;14.950;2022-07-05T02:53:26;3.20;;;1.20;;
11763;SDS011;5939;56.522;14.950;2022-07-05T02:55:52;2.33;;;1.40;;
11763;SDS011;5939;56.522;14.950;2022-07-05T02:58:18;1.50;;;1.40;;
11763;SDS011;5939;56.522;14.950;2022-07-05T03:00:44;2.23;;;1.30;;
11763;SDS011;5939;56.522;14.950;2022-07-05T03:03:12;2.50;;;1.20;;
11763;SDS011;5939;56.522;14.950;2022-07-05T03:05:38;1.80;;;1.20;;
11763;SDS011;5939;56.522;14.950;2022-07-05T03:08:04;1.73;;;1.30;;
11763;SDS011;5939;56.522;14.950;2022-07-05T03:10:30;2.43;;;1.20;;
11763;SDS011;5939;56.522;14.950;2022-07-05T03:12:56;1.13;;;1.03;;
11763;SDS011;5939;56.522;14.950;2022-07-05T03:15:22;1.90;;;1.40;;
11763;SDS011;5939;56.522;14.950;2022-07-05T03:17:47;2.10;;;1.20;;
11763;SDS011;5939;56.522;14.950;2022-07-05T03:20:13;2.80;;;1.40;;
11763;SDS011;5939;56.522;14.950;2022-07-05T03:22:39;1.87;;;1.27;;
11763;SDS011;5939;56.522;14.950;2022-07-05T03:25:05;1.70;;;1.10;;
11763;SDS011;5939;56.522;14.950;2022-07-05T03:27:31;1.70;;;1.30;;
11763;SDS011;5939;56.522;14.950;2022-07-05T03:29:56;2.33;;;1.30;;
11763;SDS011;5939;56.522;14.950;2022-07-05T03:32:22;2.77;;;1.50;;
11763;SDS011;5939;56.522;14.950;2022-07-05T03:34:48;1.30;;;1.20;;
11763;SDS011;5939;56.522;14.950;2022-07-05T03:37:14;2.67;;;1.50;;
11763;SDS011;5939;56.522;14.950;2022-07-05T03:39:40;1.30;;;1.20;;
11763;SDS011;5939;56.522;14.950;2022-07-05T03:42:06;2.57;;;1.40;;
11763;SDS011;5939;56.522;14.950;2022-07-05T03:44:32;1.80;;;1.20;;
11763;SDS011;5939;56.522;14.950;2022-07-05T03:46:58;2.80;;;1.30;;
11763;SDS011;5939;56.522;14.950;2022-07-05T03:49:24;1.97;;;1.10;;
11763;SDS011;5939;56.522;14.950;2022-07-05T03:51:50;1.50;;;1.40;;
11763;SDS011;5939;56.522;14.950;2022-07-05T03:54:16;2.07;;;1.40;;
11763;SDS011;5939;56.522;14.950;2022-07-05T03:56:44;2.30;;;1.40;;
11763;SDS011;5939;56.522;14.950;2022-07-05T03:59:10;2.00;;;1.40;;
11763;SDS011;5939;56.522;14.950;2022-07-05T04:01:36;1.80;;;1.20;;
11763;SDS011;5939;56.522;14.950;2022-07-05T04:04:02;3.43;;;1.47;;
11763;SDS011;5939;56.522;14.950;2022-07-05T04:06:28;1.80;;;1.30;;
11763;SDS011;5939;56.522;14.950;2022-07-05T04:08:54;1.47;;;1.30;;
11763;SDS011;5939;56.522;14.950;2022-07-05T04:11:19;2.30;;;1.40;;
11763;SDS011;5939;56.522;14.950;2022-07-05T04:13:45;1.87;;;1.30;;
11763;SDS011;5939;56.522;14.950;2022-07-05T04:16:11;1.63;;;1.30;;
11763;SDS011;5939;56.522;14.950;2022-07-05T04:18:37;2.23;;;1.23;;
11763;SDS011;5939;56.522;14.950;2022-07-05T04:21:02;2.37;;;1.50;;
11763;SDS011;5939;56.522;14.950;2022-07-05T04:23:28;3.13;;;1.53;;
11763;SDS011;5939;56.522;14.950;2022-07-05T04:25:54;2.43;;;1.50;;
11763;SDS011;5939;56.522;14.950;2022-07-05T04:28:20;3.77;;;1.37;;
11763;SDS011;5939;56.522;14.950;2022-07-05T04:30:46;1.57;;;1.13;;
11763;SDS011;5939;56.522;14.950;2022-07-05T04:33:12;1.57;;;1.10;;
11763;SDS011;5939;56.522;14.950;2022-07-05T04:35:37;1.97;;;1.20;;
11763;SDS011;5939;56.522;14.950;2022-07-05T04:38:03;3.57;;;1.30;;
11763;SDS011;5939;56.522;14.950;2022-07-05T04:40:29;1.40;;;1.30;;
11763;SDS011;5939;56.522;14.950;2022-07-05T04:42:55;1.80;;;1.40;;
11763;SDS011;5939;56.522;14.950;2022-07-05T04:45:21;1.90;;;1.60;;
11763;SDS011;5939;56.522;14.950;2022-07-05T04:47:46;5.60;;;1.60;;
11763;SDS011;5939;56.522;14.950;2022-07-05T04:50:12;3.77;;;1.50;;
11763;SDS011;5939;56.522;14.950;2022-07-05T04:52:38;2.20;;;1.50;;
11763;SDS011;5939;56.522;14.950;2022-07-05T04:55:04;2.87;;;1.33;;
11763;SDS011;5939;56.522;14.950;2022-07-05T04:57:39;3.33;;;1.23;;
11763;SDS011;5939;56.522;14.950;2022-07-05T05:00:07;2.20;;;1.57;;
11763;SDS011;5939;56.522;14.950;2022-07-05T05:02:34;2.03;;;1.43;;
11763;SDS011;5939;56.522;14.950;2022-07-05T05:05:00;1.83;;;1.37;;
11763;SDS011;5939;56.522;14.950;2022-07-05T05:07:26;2.23;;;1.43;;
11763;SDS011;5939;56.522;14.950;2022-07-05T05:09:52;1.97;;;1.60;;
11763;SDS011;5939;56.522;14.950;2022-07-05T05:12:18;2.33;;;1.50;;
11763;SDS011;5939;56.522;14.950;2022-07-05T05:14:43;4.10;;;1.60;;
11763;SDS011;5939;56.522;14.950;2022-07-05T05:17:09;2.17;;;1.50;;
11763;SDS011;5939;56.522;14.950;2022-07-05T05:19:35;3.20;;;1.53;;
11763;SDS011;5939;56.522;14.950;2022-07-05T05:22:00;3.47;;;1.57;;
11763;SDS011;5939;56.522;14.950;2022-07-05T05:24:26;2.13;;;1.30;;
11763;SDS011;5939;56.522;14.950;2022-07-05T05:26:51;2.17;;;1.40;;
11763;SDS011;5939;56.522;14.950;2022-07-05T05:29:17;3.07;;;1.30;;
11763;SDS011;5939;56.522;14.950;2022-07-05T05:31:44;3.77;;;1.50;;
11763;SDS011;5939;56.522;14.950;2022-07-05T05:34:10;2.47;;;1.37;;
11763;SDS011;5939;56.522;14.950;2022-07-05T05:36:35;3.13;;;1.27;;
11763;SDS011;5939;56.522;14.950;2022-07-05T05:39:01;3.90;;;1.50;;
11763;SDS011;5939;56.522;14.950;2022-07-05T05:41:27;3.53;;;1.63;;
11763;SDS011;5939;56.522;14.950;2022-07-05T05:43:53;1.90;;;1.23;;
11763;SDS011;5939;56.522;14.950;2022-07-05T05:46:18;2.33;;;1.47;;
11763;SDS011;5939;56.522;14.950;2022-07-05T05:48:44;1.60;;;1.37;;
11763;SDS011;5939;56.522;14.950;2022-07-05T05:51:10;3.07;;;1.50;;
11763;SDS011;5939;56.522;14.950;2022-07-05T05:53:35;2.77;;;1.50;;
11763;SDS011;5939;56.522;14.950;2022-07-05T05:56:01;2.97;;;1.50;;
11763;SDS011;5939;56.522;14.950;2022-07-05T05:58:27;2.83;;;1.47;;
11763;SDS011;5939;56.522;14.950;2022-07-05T06:00:53;2.43;;;1.20;;
11763;SDS011;5939;56.522;14.950;2022-07-05T06:03:19;2.63;;;1.30;;
11763;SDS011;5939;56.522;14.950;2022-07-05T06:05:48;1.97;;;1.20;;
11763;SDS011;5939;56.522;14.950;2022-07-05T06:08:14;3.13;;;1.57;;
11763;SDS011;5939;56.522;14.950;2022-07-05T06:10:41;2.20;;;1.20;;
11763;SDS011;5939;56.522;14.950;2022-07-05T06:13:08;1.93;;;1.23;;
11763;SDS011;5939;56.522;14.950;2022-07-05T06:15:35;3.33;;;1.50;;
11763;SDS011;5939;56.522;14.950;2022-07-05T06:18:01;1.87;;;1.30;;
11763;SDS011;5939;56.522;14.950;2022-07-05T06:20:29;2.63;;;1.30;;
11763;SDS011;5939;56.522;14.950;2022-07-05T06:22:56;3.87;;;1.50;;
11763;SDS011;5939;56.522;14.950;2022-07-05T06:25:23;2.87;;;1.40;;
11763;SDS011;5939;56.522;14.950;2022-07-05T06:27:52;1.60;;;1.03;;
11763;SDS011;5939;56.522;14.950;2022-07-05T06:30:20;2.40;;;1.30;;
11763;SDS011;5939;56.522;14.950;2022-07-05T06:32:47;1.27;;;1.17;;
11763;SDS011;5939;56.522;14.950;2022-07-05T06:35:13;3.20;;;1.17;;
11763;SDS011;5939;56.522;14.950;2022-07-05T06:40:20;2.40;;;1.20;;
11763;SDS011;5939;56.522;14.950;2022-07-05T06:42:49;1.27;;;1.17;;
11763;SDS011;5939;56.522;14.950;2022-07-05T06:45:21;1.90;;;1.20;;
11763;SDS011;5939;56.522;14.950;2022-07-05T06:47:53;1.50;;;1.20;;
11763;SDS011;5939;56.522;14.950;2022-07-05T06:50:20;2.67;;;1.30;;
11763;SDS011;5939;56.522;14.950;2022-07-05T06:52:46;1.70;;;1.20;;
11763;SDS011;5939;56.522;14.950;2022-07-05T06:55:11;4.30;;;1.27;;
11763;SDS011;5939;56.522;14.950;2022-07-05T06:57:37;2.50;;;1.40;;
11763;SDS011;5939;56.522;14.950;2022-07-05T07:00:04;1.93;;;1.20;;
11763;SDS011;5939;56.522;14.950;2022-07-05T07:02:30;2.77;;;1.20;;
11763;SDS011;5939;56.522;14.950;2022-07-05T07:04:56;2.27;;;1.27;;
11763;SDS011;5939;56.522;14.950;2022-07-05T07:07:22;2.23;;;1.20;;
11763;SDS011;5939;56.522;14.950;2022-07-05T07:10:06;2.70;;;1.20;;
11763;SDS011;5939;56.522;14.950;2022-07-05T07:12:32;2.40;;;1.17;;
11763;SDS011;5939;56.522;14.950;2022-07-05T07:14:58;5.33;;;1.60;;
11763;SDS011;5939;56.522;14.950;2022-07-05T07:17:24;1.90;;;1.20;;
11763;SDS011;5939;56.522;14.950;2022-07-05T07:19:50;2.40;;;1.40;;
11763;SDS011;5939;56.522;14.950;2022-07-05T07:22:16;1.63;;;1.00;;
11763;SDS011;5939;56.522;14.950;2022-07-05T07:24:41;1.77;;;1.30;;
11763;SDS011;5939;56.522;14.950;2022-07-05T07:27:07;1.97;;;1.23;;
11763;SDS011;5939;56.522;14.950;2022-07-05T07:29:37;2.63;;;1.30;;
11763;SDS011;5939;56.522;14.950;2022-07-05T07:32:04;1.63;;;1.23;;
11763;SDS011;5939;56.522;14.950;2022-07-05T07:34:30;3.17;;;1.20;;
11763;SDS011;5939;56.522;14.950;2022-07-05T07:36:56;2.33;;;1.30;;
11763;SDS011;5939;56.522;14.950;2022-07-05T07:39:23;1.43;;;0.93;;
11763;SDS011;5939;56.522;14.950;2022-07-05T07:41:49;3.47;;;1.33;;
11763;SDS011;5939;56.522;14.950;2022-07-05T07:44:16;1.80;;;0.90;;
11763;SDS011;5939;56.522;14.950;2022-07-05T07:46:42;3.47;;;1.47;;
11763;SDS011;5939;56.522;14.950;2022-07-05T07:49:08;3.10;;;1.20;;
11763;SDS011;5939;56.522;14.950;2022-07-05T07:51:34;2.13;;;1.10;;
11763;SDS011;5939;56.522;14.950;2022-07-05T07:54:01;2.27;;;1.17;;
11763;SDS011;5939;56.522;14.950;2022-07-05T07:56:26;2.60;;;1.40;;
11763;SDS011;5939;56.522;14.950;2022-07-05T07:58:52;2.97;;;1.40;;
11763;SDS011;5939;56.522;14.950;2022-07-05T08:01:18;2.90;;;1.20;;
11763;SDS011;5939;56.522;14.950;2022-07-05T08:03:44;1.97;;;1.23;;
11763;SDS011;5939;56.522;14.950;2022-07-05T08:06:10;1.53;;;1.20;;
11763;SDS011;5939;56.522;14.950;2022-07-05T08:08:38;2.00;;;1.10;;
11763;SDS011;5939;56.522;14.950;2022-07-05T08:11:06;2.40;;;1.47;;
11763;SDS011;5939;56.522;14.950;2022-07-05T08:13:33;2.00;;;1.30;;
11763;SDS011;5939;56.522;14.950;2022-07-05T08:15:59;1.50;;;1.27;;
11763;SDS011;5939;56.522;14.950;2022-07-05T08:18:25;4.50;;;1.33;;
11763;SDS011;5939;56.522;14.950;2022-07-05T08:21:09;2.30;;;1.20;;
11763;SDS011;5939;56.522;14.950;2022-07-05T08:23:53;1.07;;;0.97;;
11763;SDS011;5939;56.522;14.950;2022-07-05T08:26:19;1.73;;;1.27;;
11763;SDS011;5939;56.522;14.950;2022-07-05T08:28:45;1.97;;;1.20;;
11763;SDS011;5939;56.522;14.950;2022-07-05T08:31:11;1.50;;;1.20;;
11763;SDS011;5939;56.522;14.950;2022-07-05T08:33:37;2.83;;;1.00;;
11763;SDS011;5939;56.522;14.950;2022-07-05T08:36:03;2.07;;;1.10;;
11763;SDS011;5939;56.522;14.950;2022-07-05T08:38:30;1.60;;;1.00;;
11763;SDS011;5939;56.522;14.950;2022-07-05T08:40:56;3.23;;;1.00;;
11763;SDS011;5939;56.522;14.950;2022-07-05T08:43:22;2.93;;;1.30;;
11763;SDS011;5939;56.522;14.950;2022-07-05T08:45:52;2.37;;;1.40;;
11763;SDS011;5939;56.522;14.950;2022-07-05T08:48:19;1.53;;;1.33;;
11763;SDS011;5939;56.522;14.950;2022-07-05T08:50:46;2.60;;;1.13;;
11763;SDS011;5939;56.522;14.950;2022-07-05T08:53:14;2.73;;;1.00;;
11763;SDS011;5939;56.522;14.950;2022-07-05T08:55:40;2.53;;;1.20;;
11763;SDS011;5939;56.522;14.950;2022-07-05T08:58:07;2.37;;;0.97;;
11763;SDS011;5939;56.522;14.950;2022-07-05T09:00:32;2.47;;;1.20;;
11763;SDS011;5939;56.522;14.950;2022-07-05T09:03:02;1.77;;;1.00;;
11763;SDS011;5939;56.522;14.950;2022-07-05T09:05:28;2.00;;;1.17;;
11763;SDS011;5939;56.522;14.950;2022-07-05T09:07:59;3.23;;;1.20;;
11763;SDS011;5939;56.522;14.950;2022-07-05T09:10:25;2.30;;;1.10;;
11763;SDS011;5939;56.522;14.950;2022-07-05T09:12:53;1.93;;;1.00;;
11763;SDS011;5939;56.522;14.950;2022-07-05T09:15:20;1.43;;;1.00;;
11763;SDS011;5939;56.522;14.950;2022-07-05T09:17:46;1.30;;;1.00;;
11763;SDS011;5939;56.522;14.950;2022-07-05T09:20:12;2.20;;;1.33;;
11763;SDS011;5939;56.522;14.950;2022-07-05T09:22:52;2.27;;;1.13;;
11763;SDS011;5939;56.522;14.950;2022-07-05T09:25:26;0.97;;;0.87;;
11763;SDS011;5939;56.522;14.950;2022-07-05T09:27:59;1.70;;;1.00;;
11763;SDS011;5939;56.522;14.950;2022-07-05T09:30:35;1.60;;;1.00;;
11763;SDS011;5939;56.522;14.950;2022-07-05T09:35:40;1.63;;;0.97;;
11763;SDS011;5939;56.522;14.950;2022-07-05T09:38:20;2.40;;;1.07;;
11763;SDS011;5939;56.522;14.950;2022-07-05T09:40:48;1.73;;;1.10;;
11763;SDS011;5939;56.522;14.950;2022-07-05T09:43:17;1.93;;;0.90;;
11763;SDS011;5939;56.522;14.950;2022-07-05T09:45:53;3.00;;;1.30;;
11763;SDS011;5939;56.522;14.950;2022-07-05T09:48:19;2.00;;;1.03;;
11763;SDS011;5939;56.522;14.950;2022-07-05T09:50:45;1.37;;;0.90;;
11763;SDS011;5939;56.522;14.950;2022-07-05T09:53:13;1.70;;;1.00;;
11763;SDS011;5939;56.522;14.950;2022-07-05T09:55:38;1.37;;;1.00;;
11763;SDS011;5939;56.522;14.950;2022-07-05T09:58:05;2.03;;;1.03;;
11763;SDS011;5939;56.522;14.950;2022-07-05T10:00:32;1.60;;;0.87;;
11763;SDS011;5939;56.522;14.950;2022-07-05T10:02:58;1.23;;;0.90;;
11763;SDS011;5939;56.522;14.950;2022-07-05T10:05:30;3.83;;;1.10;;
11763;SDS011;5939;56.522;14.950;2022-07-05T10:07:58;1.53;;;0.93;;
11763;SDS011;5939;56.522;14.950;2022-07-05T10:10:25;1.83;;;1.00;;
11763;SDS011;5939;56.522;14.950;2022-07-05T10:12:57;1.33;;;1.10;;
11763;SDS011;5939;56.522;14.950;2022-07-05T10:15:28;2.90;;;1.00;;
11763;SDS011;5939;56.522;14.950;2022-07-05T10:20:27;2.03;;;1.07;;
11763;SDS011;5939;56.522;14.950;2022-07-05T10:23:07;2.03;;;1.10;;
11763;SDS011;5939;56.522;14.950;2022-07-05T10:25:35;1.00;;;0.90;;
11763;SDS011;5939;56.522;14.950;2022-07-05T10:28:02;2.07;;;0.90;;
11763;SDS011;5939;56.522;14.950;2022-07-05T10:30:28;1.60;;;0.83;;
11763;SDS011;5939;56.522;14.950;2022-07-05T10:32:54;1.97;;;1.00;;
11763;SDS011;5939;56.522;14.950;2022-07-05T10:35:21;3.53;;;1.07;;
11763;SDS011;5939;56.522;14.950;2022-07-05T10:37:48;1.23;;;0.90;;
11763;SDS011;5939;56.522;14.950;2022-07-05T10:40:14;1.67;;;1.00;;
11763;SDS011;5939;56.522;14.950;2022-07-05T10:53:14;3.23;;;1.20;;
11763;SDS011;5939;56.522;14.950;2022-07-05T10:56:26;2.40;;;1.10;;
11763;SDS011;5939;56.522;14.950;2022-07-05T11:03:52;6.23;;;4.03;;
11763;SDS011;5939;56.522;14.950;2022-07-05T11:06:28;9.17;;;7.13;;
11763;SDS011;5939;56.522;14.950;2022-07-05T11:11:24;45.07;;;32.33;;
11763;SDS011;5939;56.522;14.950;2022-07-05T11:13:57;38.70;;;29.80;;
11763;SDS011;5939;56.522;14.950;2022-07-05T11:19:08;30.20;;;22.90;;
11763;SDS011;5939;56.522;14.950;2022-07-05T11:21:36;19.70;;;16.27;;
11763;SDS011;5939;56.522;14.950;2022-07-05T11:24:18;16.37;;;12.83;;
11763;SDS011;5939;56.522;14.950;2022-07-05T11:26:50;13.60;;;8.80;;
11763;SDS011;5939;56.522;14.950;2022-07-05T11:32:09;8.50;;;6.40;;
11763;SDS011;5939;56.522;14.950;2022-07-05T11:34:38;6.90;;;5.93;;
11763;SDS011;5939;56.522;14.950;2022-07-05T11:37:42;6.73;;;4.83;;
11763;SDS011;5939;56.522;14.950;2022-07-05T11:42:30;7.17;;;5.23;;
11763;SDS011;5939;56.522;14.950;2022-07-05T11:44:56;6.50;;;4.23;;
11763;SDS011;5939;56.522;14.950;2022-07-05T11:47:23;6.33;;;4.40;;
11763;SDS011;5939;56.522;14.950;2022-07-05T11:49:55;4.83;;;3.53;;
11763;SDS011;5939;56.522;14.950;2022-07-05T11:52:28;6.00;;;3.90;;
11763;SDS011;5939;56.522;14.950;2022-07-05T11:55:02;5.23;;;4.23;;
11763;SDS011;5939;56.522;14.950;2022-07-05T11:57:29;6.90;;;4.43;;
11763;SDS011;5939;56.522;14.950;2022-07-05T11:59:55;5.73;;;4.27;;
11763;SDS011;5939;56.522;14.950;2022-07-05T12:02:21;4.70;;;3.53;;
11763;SDS011;5939;56.522;14.950;2022-07-05T12:04:50;5.20;;;3.33;;
11763;SDS011;5939;56.522;14.950;2022-07-05T12:07:24;4.63;;;3.07;;
11763;SDS011;5939;56.522;14.950;2022-07-05T12:09:51;3.60;;;3.10;;
11763;SDS011;5939;56.522;14.950;2022-07-05T12:12:36;4.10;;;3.20;;
11763;SDS011;5939;56.522;14.950;2022-07-05T12:15:11;2.97;;;2.67;;
11763;SDS011;5939;56.522;14.950;2022-07-05T12:17:39;3.77;;;2.80;;
11763;SDS011;5939;56.522;14.950;2022-07-05T12:20:06;3.00;;;2.20;;
11763;SDS011;5939;56.522;14.950;2022-07-05T12:22:34;2.83;;;1.53;;
11763;SDS011;5939;56.522;14.950;2022-07-05T12:25:03;2.57;;;1.80;;
11763;SDS011;5939;56.522;14.950;2022-07-05T12:27:31;3.53;;;1.70;;
11763;SDS011;5939;56.522;14.950;2022-07-05T12:29:58;3.30;;;1.70;;
11763;SDS011;5939;56.522;14.950;2022-07-05T12:32:28;2.33;;;2.10;;
11763;SDS011;5939;56.522;14.950;2022-07-05T12:34:57;3.20;;;1.70;;
11763;SDS011;5939;56.522;14.950;2022-07-05T12:37:24;3.97;;;2.07;;
11763;SDS011;5939;56.522;14.950;2022-07-05T12:40:01;2.33;;;1.60;;
11763;SDS011;5939;56.522;14.950;2022-07-05T12:42:32;2.60;;;1.80;;
11763;SDS011;5939;56.522;14.950;2022-07-05T12:45:14;1.60;;;1.50;;
11763;SDS011;5939;56.522;14.950;2022-07-05T12:47:47;2.27;;;1.50;;
11763;SDS011;5939;56.522;14.950;2022-07-05T12:50:13;1.50;;;1.40;;
11763;SDS011;5939;56.522;14.950;2022-07-05T12:52:58;2.27;;;1.50;;
11763;SDS011;5939;56.522;14.950;2022-07-05T12:55:50;1.43;;;1.23;;
11763;SDS011;5939;56.522;14.950;2022-07-05T12:58:52;2.47;;;1.27;;
11763;SDS011;5939;56.522;14.950;2022-07-05T13:01:23;2.37;;;1.20;;
11763;SDS011;5939;56.522;14.950;2022-07-05T13:03:57;1.40;;;1.03;;
11763;SDS011;5939;56.522;14.950;2022-07-05T13:09:30;2.40;;;1.20;;
11763;SDS011;5939;56.522;14.950;2022-07-05T13:12:12;2.40;;;1.10;;
11763;SDS011;5939;56.522;14.950;2022-07-05T13:14:40;2.60;;;1.10;;
11763;SDS011;5939;56.522;14.950;2022-07-05T13:17:08;1.30;;;1.10;;
11763;SDS011;5939;56.522;14.950;2022-07-05T13:19:35;2.43;;;0.90;;
11763;SDS011;5939;56.522;14.950;2022-07-05T13:22:02;2.13;;;1.10;;
11763;SDS011;5939;56.522;14.950;2022-07-05T13:24:28;1.47;;;1.10;;
11763;SDS011;5939;56.522;14.950;2022-07-05T13:26:54;1.37;;;1.00;;
11763;SDS011;5939;56.522;14.950;2022-07-05T13:29:20;1.10;;;1.00;;
11763;SDS011;5939;56.522;14.950;2022-07-05T13:31:46;1.80;;;1.00;;
11763;SDS011;5939;56.522;14.950;2022-07-05T13:34:12;2.93;;;1.23;;
11763;SDS011;5939;56.522;14.950;2022-07-05T13:36:37;2.03;;;1.10;;
11763;SDS011;5939;56.522;14.950;2022-07-05T13:39:03;1.47;;;0.90;;
11763;SDS011;5939;56.522;14.950;2022-07-05T13:41:29;2.00;;;1.30;;
11763;SDS011;5939;56.522;14.950;2022-07-05T13:43:56;2.90;;;1.10;;
11763;SDS011;5939;56.522;14.950;2022-07-05T13:46:23;0.87;;;0.83;;
11763;SDS011;5939;56.522;14.950;2022-07-05T13:48:48;1.60;;;1.00;;
11763;SDS011;5939;56.522;14.950;2022-07-05T13:51:14;2.40;;;1.00;;
11763;SDS011;5939;56.522;14.950;2022-07-05T13:53:40;1.40;;;1.00;;
11763;SDS011;5939;56.522;14.950;2022-07-05T13:56:06;1.97;;;1.00;;
11763;SDS011;5939;56.522;14.950;2022-07-05T13:58:32;0.90;;;0.70;;
11763;SDS011;5939;56.522;14.950;2022-07-05T14:00:58;1.30;;;0.80;;
11763;SDS011;5939;56.522;14.950;2022-07-05T14:03:25;1.53;;;0.83;;
11763;SDS011;5939;56.522;14.950;2022-07-05T14:05:51;1.10;;;0.90;;
11763;SDS011;5939;56.522;14.950;2022-07-05T14:08:17;1.47;;;0.87;;
11763;SDS011;5939;56.522;14.950;2022-07-05T14:10:49;0.97;;;0.90;;
11763;SDS011;5939;56.522;14.950;2022-07-05T14:13:22;1.50;;;0.80;;
11763;SDS011;5939;56.522;14.950;2022-07-05T14:15:50;1.60;;;0.90;;
11763;SDS011;5939;56.522;14.950;2022-07-05T14:18:17;1.30;;;0.83;;
11763;SDS011;5939;56.522;14.950;2022-07-05T14:20:45;2.40;;;0.90;;
11763;SDS011;5939;56.522;14.950;2022-07-05T14:23:12;2.07;;;0.83;;
11763;SDS011;5939;56.522;14.950;2022-07-05T14:25:40;1.33;;;0.80;;
11763;SDS011;5939;56.522;14.950;2022-07-05T14:28:06;1.53;;;1.13;;
11763;SDS011;5939;56.522;14.950;2022-07-05T14:30:35;1.00;;;0.73;;
11763;SDS011;5939;56.522;14.950;2022-07-05T14:33:02;1.40;;;1.10;;
11763;SDS011;5939;56.522;14.950;2022-07-05T14:35:29;1.37;;;0.83;;
11763;SDS011;5939;56.522;14.950;2022-07-05T14:37:56;0.90;;;0.80;;
11763;SDS011;5939;56.522;14.950;2022-07-05T14:40:22;1.63;;;0.90;;
11763;SDS011;5939;56.522;14.950;2022-07-05T14:42:51;0.97;;;0.80;;
11763;SDS011;5939;56.522;14.950;2022-07-05T14:45:18;1.20;;;0.90;;
11763;SDS011;5939;56.522;14.950;2022-07-05T14:47:44;0.80;;;0.80;;
11763;SDS011;5939;56.522;14.950;2022-07-05T14:50:10;1.40;;;0.90;;
11763;SDS011;5939;56.522;14.950;2022-07-05T14:52:36;1.10;;;0.70;;
11763;SDS011;5939;56.522;14.950;2022-07-05T14:55:02;0.90;;;0.80;;
11763;SDS011;5939;56.522;14.950;2022-07-05T14:57:29;1.30;;;0.70;;
11763;SDS011;5939;56.522;14.950;2022-07-05T14:59:55;1.13;;;0.90;;
11763;SDS011;5939;56.522;14.950;2022-07-05T15:02:20;2.53;;;0.83;;
11763;SDS011;5939;56.522;14.950;2022-07-05T15:04:46;1.20;;;0.80;;
11763;SDS011;5939;56.522;14.950;2022-07-05T15:07:12;0.93;;;0.80;;
11763;SDS011;5939;56.522;14.950;2022-07-05T15:09:37;1.80;;;0.90;;
11763;SDS011;5939;56.522;14.950;2022-07-05T15:12:03;1.00;;;0.80;;
11763;SDS011;5939;56.522;14.950;2022-07-05T15:14:29;0.60;;;0.60;;
11763;SDS011;5939;56.522;14.950;2022-07-05T15:16:55;0.90;;;0.70;;
11763;SDS011;5939;56.522;14.950;2022-07-05T15:19:24;0.90;;;0.80;;
11763;SDS011;5939;56.522;14.950;2022-07-05T15:21:49;0.90;;;0.80;;
11763;SDS011;5939;56.522;14.950;2022-07-05T15:24:15;1.97;;;0.80;;
11763;SDS011;5939;56.522;14.950;2022-07-05T15:26:46;1.33;;;0.80;;
11763;SDS011;5939;56.522;14.950;2022-07-05T15:29:13;1.63;;;0.90;;
11763;SDS011;5939;56.522;14.950;2022-07-05T15:31:39;0.93;;;0.80;;